sensor_id;sensor_type;location;lat;lon;timestamp;pressure;altitude;pressure_sealevel;temperature;humidity
38054;BME280;23859;50.672;7.164;2024-01-11T00:00:40;36352.22;;;-140.95;75.33
38054;BME280;23859;50.672;7.164;2024-01-11T00:03:07;36348.19;;;-140.95;74.32
38054;BME280;23859;50.672;7.164;2024-01-11T00:05:33;36326.09;;;-140.95;74.33
38054;BME280;23859;50.672;7.164;2024-01-11T00:07:59;36362.28;;;-140.95;75.47
38054;BME280;23859;50.672;7.164;2024-01-11T00:10:25;36340.16;;;-140.95;74.93
38054;BME280;23859;50.672;7.164;2024-01-11T00:12:51;36362.28;;;-140.95;74.30
38054;BME280;23859;50.672;7.164;2024-01-11T00:15:17;36322.09;;;-140.95;74.48
38054;BME280;23859;50.672;7.164;2024-01-11T00:17:43;36322.09;;;-140.95;74.71
38054;BME280;23859;50.672;7.164;2024-01-11T00:20:10;36330.13;;;-140.95;74.51
38054;BME280;23859;50.672;7.164;2024-01-11T00:22:36;36338.16;;;-140.95;75.73
38054;BME280;23859;50.672;7.164;2024-01-11T00:25:03;36348.19;;;-140.95;75.25
38054;BME280;23859;50.672;7.164;2024-01-11T00:27:30;36322.09;;;-140.95;75.65
38054;BME280;23859;50.672;7.164;2024-01-11T00:29:56;36348.19;;;-140.95;75.36
38054;BME280;23859;50.672;7.164;2024-01-11T00:32:22;36350.22;;;-140.95;75.76
38054;BME280;23859;50.672;7.164;2024-01-11T00:34:48;36324.09;;;-140.95;75.42
38054;BME280;23859;50.672;7.164;2024-01-11T00:37:14;36334.13;;;-140.95;75.28
38054;BME280;23859;50.672;7.164;2024-01-11T00:39:40;36332.13;;;-140.95;75.80
38054;BME280;23859;50.672;7.164;2024-01-11T00:42:06;36314.03;;;-140.95;75.83
38054;BME280;23859;50.672;7.164;2024-01-11T00:44:32;36330.13;;;-140.95;76.06
38054;BME280;23859;50.672;7.164;2024-01-11T00:46:58;36318.06;;;-140.95;76.49
38054;BME280;23859;50.672;7.164;2024-01-11T00:49:24;36344.19;;;-140.95;74.95
38054;BME280;23859;50.672;7.164;2024-01-11T00:51:50;36336.16;;;-140.95;75.58
38054;BME280;23859;50.672;7.164;2024-01-11T00:54:19;36344.19;;;-140.95;74.97
38054;BME280;23859;50.672;7.164;2024-01-11T00:56:45;36328.09;;;-140.95;76.21
38054;BME280;23859;50.672;7.164;2024-01-11T00:59:11;36330.13;;;-140.95;75.96
38054;BME280;23859;50.672;7.164;2024-01-11T01:01:37;36338.16;;;-140.95;75.64
38054;BME280;23859;50.672;7.164;2024-01-11T01:04:03;36310.03;;;-140.95;75.41
38054;BME280;23859;50.672;7.164;2024-01-11T01:06:29;36322.09;;;-140.95;75.55
38054;BME280;23859;50.672;7.164;2024-01-11T01:08:56;36338.16;;;-140.95;75.96
38054;BME280;23859;50.672;7.164;2024-01-11T01:11:22;36358.25;;;-140.95;76.14
38054;BME280;23859;50.672;7.164;2024-01-11T01:13:48;36314.03;;;-140.95;76.07
38054;BME280;23859;50.672;7.164;2024-01-11T01:16:14;36320.06;;;-140.95;76.24
38054;BME280;23859;50.672;7.164;2024-01-11T01:18:40;36350.22;;;-140.95;76.19
38054;BME280;23859;50.672;7.164;2024-01-11T01:21:06;36358.25;;;-140.95;76.47
38054;BME280;23859;50.672;7.164;2024-01-11T01:23:33;36330.13;;;-140.95;76.29
38054;BME280;23859;50.672;7.164;2024-01-11T01:25:59;36314.03;;;-140.95;75.91
38054;BME280;23859;50.672;7.164;2024-01-11T01:28:25;36330.13;;;-140.95;76.03
38054;BME280;23859;50.672;7.164;2024-01-11T01:30:51;36348.19;;;-140.95;76.38
38054;BME280;23859;50.672;7.164;2024-01-11T01:33:17;36328.09;;;-140.95;75.99
38054;BME280;23859;50.672;7.164;2024-01-11T01:35:43;36330.13;;;-140.95;76.03
38054;BME280;23859;50.672;7.164;2024-01-11T01:38:09;36358.25;;;-140.95;76.53
38054;BME280;23859;50.672;7.164;2024-01-11T01:40:36;36358.25;;;-140.95;76.48
38054;BME280;23859;50.672;7.164;2024-01-11T01:43:07;36336.16;;;-140.95;76.64
38054;BME280;23859;50.672;7.164;2024-01-11T01:45:36;36318.06;;;-140.95;75.98
38054;BME280;23859;50.672;7.164;2024-01-11T01:48:03;36376.34;;;-140.95;75.66
38054;BME280;23859;50.672;7.164;2024-01-11T01:50:30;36328.09;;;-140.95;75.97
38054;BME280;23859;50.672;7.164;2024-01-11T01:52:57;36322.09;;;-140.95;76.39
38054;BME280;23859;50.672;7.164;2024-01-11T01:55:23;36342.19;;;-140.95;76.32
38054;BME280;23859;50.672;7.164;2024-01-11T01:57:52;36310.03;;;-140.95;77.50
38054;BME280;23859;50.672;7.164;2024-01-11T02:00:18;36318.06;;;-140.95;77.47
38054;BME280;23859;50.672;7.164;2024-01-11T02:02:46;36342.19;;;-140.95;76.86
38054;BME280;23859;50.672;7.164;2024-01-11T02:05:17;36346.19;;;-140.95;77.05
38054;BME280;23859;50.672;7.164;2024-01-11T02:07:44;36328.09;;;-140.95;77.13
38054;BME280;23859;50.672;7.164;2024-01-11T02:10:11;36338.16;;;-140.95;77.71
38054;BME280;23859;50.672;7.164;2024-01-11T02:12:37;36350.22;;;-140.95;77.13
38054;BME280;23859;50.672;7.164;2024-01-11T02:15:04;36346.19;;;-140.95;77.01
38054;BME280;23859;50.672;7.164;2024-01-11T02:17:33;36326.09;;;-140.95;76.68
38054;BME280;23859;50.672;7.164;2024-01-11T02:19:59;36320.06;;;-140.95;76.70
38054;BME280;23859;50.672;7.164;2024-01-11T02:22:34;36346.19;;;-140.95;76.71
38054;BME280;23859;50.672;7.164;2024-01-11T02:25:01;36306.00;;;-140.95;77.33
38054;BME280;23859;50.672;7.164;2024-01-11T02:27:28;36344.19;;;-140.95;77.34
38054;BME280;23859;50.672;7.164;2024-01-11T02:29:54;36322.09;;;-140.95;76.40
38054;BME280;23859;50.672;7.164;2024-01-11T02:32:20;36322.09;;;-140.95;76.50
38054;BME280;23859;50.672;7.164;2024-01-11T02:34:46;36316.06;;;-140.95;76.88
38054;BME280;23859;50.672;7.164;2024-01-11T02:37:13;36322.09;;;-140.95;77.02
38054;BME280;23859;50.672;7.164;2024-01-11T02:39:39;36350.22;;;-140.95;77.32
38054;BME280;23859;50.672;7.164;2024-01-11T02:42:06;36350.22;;;-140.95;77.30
38054;BME280;23859;50.672;7.164;2024-01-11T02:44:32;36346.19;;;-140.95;77.27
38054;BME280;23859;50.672;7.164;2024-01-11T02:46:58;36352.22;;;-140.95;77.75
38054;BME280;23859;50.672;7.164;2024-01-11T02:49:24;36312.03;;;-140.95;77.30
38054;BME280;23859;50.672;7.164;2024-01-11T02:51:50;36344.19;;;-140.95;77.41
38054;BME280;23859;50.672;7.164;2024-01-11T02:54:16;36318.06;;;-140.95;77.39
38054;BME280;23859;50.672;7.164;2024-01-11T02:56:42;36350.22;;;-140.95;77.25
38054;BME280;23859;50.672;7.164;2024-01-11T02:59:09;36334.13;;;-140.95;77.64
38054;BME280;23859;50.672;7.164;2024-01-11T03:01:35;36332.13;;;-140.95;77.41
38054;BME280;23859;50.672;7.164;2024-01-11T03:04:01;36334.13;;;-140.95;77.39
38054;BME280;23859;50.672;7.164;2024-01-11T03:06:27;36340.16;;;-140.95;78.33
38054;BME280;23859;50.672;7.164;2024-01-11T03:08:53;36338.16;;;-140.95;78.66
38054;BME280;23859;50.672;7.164;2024-01-11T03:11:19;36354.22;;;-140.95;78.46
38054;BME280;23859;50.672;7.164;2024-01-11T03:13:45;36334.13;;;-140.95;78.53
38054;BME280;23859;50.672;7.164;2024-01-11T03:16:11;36358.25;;;-140.95;79.20
38054;BME280;23859;50.672;7.164;2024-01-11T03:18:37;36326.09;;;-140.95;78.92
38054;BME280;23859;50.672;7.164;2024-01-11T03:21:04;36318.06;;;-140.95;78.45
38054;BME280;23859;50.672;7.164;2024-01-11T03:23:30;36336.16;;;-140.95;78.01
38054;BME280;23859;50.672;7.164;2024-01-11T03:25:56;36350.22;;;-140.95;78.07
38054;BME280;23859;50.672;7.164;2024-01-11T03:28:22;36352.22;;;-140.95;78.34
38054;BME280;23859;50.672;7.164;2024-01-11T03:30:48;36326.09;;;-140.95;78.53
38054;BME280;23859;50.672;7.164;2024-01-11T03:33:14;36342.19;;;-140.95;78.22
38054;BME280;23859;50.672;7.164;2024-01-11T03:35:40;36336.16;;;-140.95;78.49
38054;BME280;23859;50.672;7.164;2024-01-11T03:38:06;36297.97;;;-140.95;78.54
38054;BME280;23859;50.672;7.164;2024-01-11T03:40:32;36330.13;;;-140.95;78.47
38054;BME280;23859;50.672;7.164;2024-01-11T03:42:58;36346.19;;;-140.95;77.86
38054;BME280;23859;50.672;7.164;2024-01-11T03:45:24;36328.09;;;-140.95;77.15
38054;BME280;23859;50.672;7.164;2024-01-11T03:47:50;36342.19;;;-140.95;77.12
38054;BME280;23859;50.672;7.164;2024-01-11T03:50:16;36342.19;;;-140.95;77.85
38054;BME280;23859;50.672;7.164;2024-01-11T03:52:42;36318.06;;;-140.95;78.14
38054;BME280;23859;50.672;7.164;2024-01-11T03:55:08;36350.22;;;-140.95;78.26
38054;BME280;23859;50.672;7.164;2024-01-11T03:57:35;36318.06;;;-140.95;78.05
38054;BME280;23859;50.672;7.164;2024-01-11T04:00:01;36324.09;;;-140.95;78.33
38054;BME280;23859;50.672;7.164;2024-01-11T04:02:27;36330.13;;;-140.95;78.31
38054;BME280;23859;50.672;7.164;2024-01-11T04:04:53;36344.19;;;-140.95;78.15
38054;BME280;23859;50.672;7.164;2024-01-11T04:07:19;36314.03;;;-140.95;77.84
38054;BME280;23859;50.672;7.164;2024-01-11T04:09:45;36320.06;;;-140.95;77.60
38054;BME280;23859;50.672;7.164;2024-01-11T04:12:11;36330.13;;;-140.95;77.80
38054;BME280;23859;50.672;7.164;2024-01-11T04:14:39;36310.03;;;-140.95;78.16
38054;BME280;23859;50.672;7.164;2024-01-11T04:17:08;36587.34;;;-140.95;78.66
38054;BME280;23859;50.672;7.164;2024-01-11T04:19:34;36322.09;;;-140.95;78.90
38054;BME280;23859;50.672;7.164;2024-01-11T04:22:00;36322.09;;;-140.95;78.82
38054;BME280;23859;50.672;7.164;2024-01-11T04:24:26;36310.03;;;-140.95;78.99
38054;BME280;23859;50.672;7.164;2024-01-11T04:26:52;36326.09;;;-140.95;79.18
38054;BME280;23859;50.672;7.164;2024-01-11T04:29:18;36316.06;;;-140.95;79.10
38054;BME280;23859;50.672;7.164;2024-01-11T04:31:44;36332.13;;;-140.95;79.18
38054;BME280;23859;50.672;7.164;2024-01-11T04:34:10;36346.19;;;-140.95;78.58
38054;BME280;23859;50.672;7.164;2024-01-11T04:36:38;36334.13;;;-140.95;78.70
38054;BME280;23859;50.672;7.164;2024-01-11T04:39:05;36370.31;;;-140.95;78.68
38054;BME280;23859;50.672;7.164;2024-01-11T04:41:33;36318.06;;;-140.95;79.10
38054;BME280;23859;50.672;7.164;2024-01-11T04:43:59;36314.03;;;-140.95;78.46
38054;BME280;23859;50.672;7.164;2024-01-11T04:46:25;36342.19;;;-140.95;78.47
38054;BME280;23859;50.672;7.164;2024-01-11T04:48:51;36338.16;;;-140.95;78.49
38054;BME280;23859;50.672;7.164;2024-01-11T04:51:17;36364.28;;;-140.95;79.16
38054;BME280;23859;50.672;7.164;2024-01-11T04:53:44;36330.13;;;-140.95;79.21
38054;BME280;23859;50.672;7.164;2024-01-11T04:56:13;36344.19;;;-140.95;78.72
38054;BME280;23859;50.672;7.164;2024-01-11T04:58:41;36354.22;;;-140.95;79.20
38054;BME280;23859;50.672;7.164;2024-01-11T05:01:12;36342.19;;;-140.95;79.20
38054;BME280;23859;50.672;7.164;2024-01-11T05:03:38;36326.09;;;-140.95;78.33
38054;BME280;23859;50.672;7.164;2024-01-11T05:06:05;36310.03;;;-140.95;78.33
38054;BME280;23859;50.672;7.164;2024-01-11T05:08:31;36338.16;;;-140.95;78.11
38054;BME280;23859;50.672;7.164;2024-01-11T05:10:57;36342.19;;;-140.95;77.93
38054;BME280;23859;50.672;7.164;2024-01-11T05:13:23;36328.09;;;-140.95;77.82
38054;BME280;23859;50.672;7.164;2024-01-11T05:15:49;36326.09;;;-140.95;77.58
38054;BME280;23859;50.672;7.164;2024-01-11T05:18:15;36326.09;;;-140.95;77.64
38054;BME280;23859;50.672;7.164;2024-01-11T05:20:41;36350.22;;;-140.95;76.77
38054;BME280;23859;50.672;7.164;2024-01-11T05:23:07;36342.19;;;-140.95;77.16
38054;BME280;23859;50.672;7.164;2024-01-11T05:25:34;36334.13;;;-140.95;76.86
38054;BME280;23859;50.672;7.164;2024-01-11T05:28:01;36330.13;;;-140.95;76.64
38054;BME280;23859;50.672;7.164;2024-01-11T05:30:27;36324.09;;;-140.95;76.61
38054;BME280;23859;50.672;7.164;2024-01-11T05:32:54;36340.16;;;-140.95;77.05
38054;BME280;23859;50.672;7.164;2024-01-11T05:35:20;36326.09;;;-140.95;76.73
38054;BME280;23859;50.672;7.164;2024-01-11T05:37:46;36316.06;;;-140.95;76.75
38054;BME280;23859;50.672;7.164;2024-01-11T05:40:12;34610.41;;;-140.95;77.17
38054;BME280;23859;50.672;7.164;2024-01-11T05:42:39;36344.19;;;-140.95;77.19
38054;BME280;23859;50.672;7.164;2024-01-11T05:45:06;36318.06;;;-140.95;77.34
38054;BME280;23859;50.672;7.164;2024-01-11T05:47:32;36322.09;;;-140.95;77.79
38054;BME280;23859;50.672;7.164;2024-01-11T05:49:58;36346.19;;;-140.95;77.79
38054;BME280;23859;50.672;7.164;2024-01-11T05:52:24;36306.00;;;-140.95;77.59
38054;BME280;23859;50.672;7.164;2024-01-11T05:54:50;36338.16;;;-140.95;77.67
38054;BME280;23859;50.672;7.164;2024-01-11T05:57:17;36306.00;;;-140.95;77.75
38054;BME280;23859;50.672;7.164;2024-01-11T05:59:46;36346.19;;;-140.95;77.77
38054;BME280;23859;50.672;7.164;2024-01-11T06:02:12;36326.09;;;-140.95;77.82
38054;BME280;23859;50.672;7.164;2024-01-11T06:04:39;36318.06;;;-140.95;78.00
38054;BME280;23859;50.672;7.164;2024-01-11T06:07:06;36336.16;;;-140.95;77.72
38054;BME280;23859;50.672;7.164;2024-01-11T06:09:32;36330.13;;;-140.95;77.71
38054;BME280;23859;50.672;7.164;2024-01-11T06:11:58;36354.22;;;-140.95;78.04
38054;BME280;23859;50.672;7.164;2024-01-11T06:14:25;36342.19;;;-140.95;77.95
38054;BME280;23859;50.672;7.164;2024-01-11T06:16:51;36334.13;;;-140.95;78.40
38054;BME280;23859;50.672;7.164;2024-01-11T06:19:17;36330.13;;;-140.95;77.75
38054;BME280;23859;50.672;7.164;2024-01-11T06:21:43;36346.19;;;-140.95;78.24
38054;BME280;23859;50.672;7.164;2024-01-11T06:24:09;36342.19;;;-140.95;78.50
38054;BME280;23859;50.672;7.164;2024-01-11T06:26:35;36338.16;;;-140.95;78.13
38054;BME280;23859;50.672;7.164;2024-01-11T06:29:01;36308.00;;;-140.95;78.12
38054;BME280;23859;50.672;7.164;2024-01-11T06:31:28;36360.25;;;-140.95;77.82
38054;BME280;23859;50.672;7.164;2024-01-11T06:33:54;36372.31;;;-140.95;77.62
38054;BME280;23859;50.672;7.164;2024-01-11T06:36:21;36356.25;;;-140.95;77.41
38054;BME280;23859;50.672;7.164;2024-01-11T06:38:47;36340.16;;;-140.95;77.33
38054;BME280;23859;50.672;7.164;2024-01-11T06:41:13;36334.13;;;-140.95;77.94
38054;BME280;23859;50.672;7.164;2024-01-11T06:43:39;36318.06;;;-140.95;78.50
38054;BME280;23859;50.672;7.164;2024-01-11T06:46:06;36358.25;;;-140.95;78.13
38054;BME280;23859;50.672;7.164;2024-01-11T06:48:32;36332.13;;;-140.95;77.78
38054;BME280;23859;50.672;7.164;2024-01-11T06:50:59;36328.09;;;-140.95;77.87
38054;BME280;23859;50.672;7.164;2024-01-11T06:53:25;36330.13;;;-140.95;77.13
38054;BME280;23859;50.672;7.164;2024-01-11T06:55:51;36334.13;;;-140.95;78.04
38054;BME280;23859;50.672;7.164;2024-01-11T06:58:20;36334.13;;;-140.95;78.67
38054;BME280;23859;50.672;7.164;2024-01-11T07:00:48;36354.22;;;-140.95;78.04
38054;BME280;23859;50.672;7.164;2024-01-11T07:03:15;36344.19;;;-140.95;78.29
38054;BME280;23859;50.672;7.164;2024-01-11T07:05:41;36334.13;;;-140.95;78.84
38054;BME280;23859;50.672;7.164;2024-01-11T07:08:07;36342.19;;;-140.95;78.80
38054;BME280;23859;50.672;7.164;2024-01-11T07:10:34;36324.09;;;-140.95;78.06
38054;BME280;23859;50.672;7.164;2024-01-11T07:13:00;36336.16;;;-140.95;78.18
38054;BME280;23859;50.672;7.164;2024-01-11T07:15:26;36354.22;;;-140.95;78.18
38054;BME280;23859;50.672;7.164;2024-01-11T07:17:52;36346.19;;;-140.95;77.69
38054;BME280;23859;50.672;7.164;2024-01-11T07:20:19;36338.16;;;-140.95;78.19
38054;BME280;23859;50.672;7.164;2024-01-11T07:22:45;36318.06;;;-140.95;78.65
38054;BME280;23859;50.672;7.164;2024-01-11T07:25:11;36326.09;;;-140.95;79.21
38054;BME280;23859;50.672;7.164;2024-01-11T07:27:37;36336.16;;;-140.95;78.74
38054;BME280;23859;50.672;7.164;2024-01-11T07:30:03;36615.47;;;-140.95;78.50
38054;BME280;23859;50.672;7.164;2024-01-11T07:32:32;36346.19;;;-140.95;78.37
38054;BME280;23859;50.672;7.164;2024-01-11T07:34:58;36322.09;;;-140.95;77.97
38054;BME280;23859;50.672;7.164;2024-01-11T07:37:24;36314.03;;;-140.95;77.39
38054;BME280;23859;50.672;7.164;2024-01-11T07:39:51;36348.19;;;-140.95;77.81
38054;BME280;23859;50.672;7.164;2024-01-11T07:42:17;36320.06;;;-140.95;77.59
38054;BME280;23859;50.672;7.164;2024-01-11T07:44:44;36314.03;;;-140.95;77.34
38054;BME280;23859;50.672;7.164;2024-01-11T07:47:11;36310.03;;;-140.95;78.24
38054;BME280;23859;50.672;7.164;2024-01-11T07:49:37;36334.13;;;-140.95;77.60
38054;BME280;23859;50.672;7.164;2024-01-11T07:52:03;36330.13;;;-140.95;77.79
38054;BME280;23859;50.672;7.164;2024-01-11T07:54:30;36302.00;;;-140.95;76.64
38054;BME280;23859;50.672;7.164;2024-01-11T07:56:57;36291.94;;;-140.95;76.41
38054;BME280;23859;50.672;7.164;2024-01-11T07:59:23;36322.09;;;-140.95;76.39
38054;BME280;23859;50.672;7.164;2024-01-11T08:01:49;36265.81;;;-140.95;76.37
38054;BME280;23859;50.672;7.164;2024-01-11T08:04:15;36302.00;;;-140.95;76.51
38054;BME280;23859;50.672;7.164;2024-01-11T08:06:41;36261.78;;;-140.95;76.07
38054;BME280;23859;50.672;7.164;2024-01-11T08:09:07;36299.97;;;-140.95;76.13
38054;BME280;23859;50.672;7.164;2024-01-11T08:11:36;36320.06;;;-140.95;76.25
38054;BME280;23859;50.672;7.164;2024-01-11T08:14:02;36277.88;;;-140.95;76.04
38054;BME280;23859;50.672;7.164;2024-01-11T08:16:28;36277.88;;;-140.95;76.46
38054;BME280;23859;50.672;7.164;2024-01-11T08:18:54;36306.00;;;-140.95;76.41
38054;BME280;23859;50.672;7.164;2024-01-11T08:21:20;36251.75;;;-140.95;76.71
38054;BME280;23859;50.672;7.164;2024-01-11T08:23:46;36318.06;;;-140.95;77.13
38054;BME280;23859;50.672;7.164;2024-01-11T08:26:15;36289.94;;;-140.95;77.45
38054;BME280;23859;50.672;7.164;2024-01-11T08:28:42;36257.78;;;-140.95;77.92
38054;BME280;23859;50.672;7.164;2024-01-11T08:31:08;36358.25;;;-140.95;77.62
38054;BME280;23859;50.672;7.164;2024-01-11T08:33:34;36255.78;;;-140.95;77.58
38054;BME280;23859;50.672;7.164;2024-01-11T08:36:03;36277.88;;;-140.95;77.37
38054;BME280;23859;50.672;7.164;2024-01-11T08:38:30;36306.00;;;-140.95;77.41
38054;BME280;23859;50.672;7.164;2024-01-11T08:40:56;36297.97;;;-140.95;76.68
38054;BME280;23859;50.672;7.164;2024-01-11T08:43:22;36289.94;;;-140.95;76.19
38054;BME280;23859;50.672;7.164;2024-01-11T08:45:48;36249.75;;;-140.95;75.68
38054;BME280;23859;50.672;7.164;2024-01-11T08:48:14;36245.72;;;-140.95;75.42
38054;BME280;23859;50.672;7.164;2024-01-11T08:50:41;36269.84;;;-140.95;70.15
38054;BME280;23859;50.672;7.164;2024-01-11T08:53:07;36271.84;;;-140.95;64.13
38054;BME280;23859;50.672;7.164;2024-01-11T08:55:33;36249.75;;;-140.95;64.18
38054;BME280;23859;50.672;7.164;2024-01-11T08:57:59;36263.81;;;-140.95;64.35
38054;BME280;23859;50.672;7.164;2024-01-11T09:00:26;36221.59;;;-140.95;63.27
38054;BME280;23859;50.672;7.164;2024-01-11T09:02:52;36217.59;;;-140.95;61.40
38054;BME280;23859;50.672;7.164;2024-01-11T09:05:18;36219.59;;;-140.95;62.14
38054;BME280;23859;50.672;7.164;2024-01-11T09:07:45;36181.41;;;-140.95;59.65
38054;BME280;23859;50.672;7.164;2024-01-11T09:10:11;36197.50;;;-140.95;60.77
38054;BME280;23859;50.672;7.164;2024-01-11T09:12:38;36173.38;;;-140.95;59.00
38054;BME280;23859;50.672;7.164;2024-01-11T09:15:04;36151.28;;;-140.95;56.90
38054;BME280;23859;50.672;7.164;2024-01-11T09:17:31;36197.50;;;-140.95;53.70
38054;BME280;23859;50.672;7.164;2024-01-11T09:19:57;36205.53;;;-140.95;55.32
38054;BME280;23859;50.672;7.164;2024-01-11T09:22:23;36201.50;;;-140.95;55.99
38054;BME280;23859;50.672;7.164;2024-01-11T09:24:49;36229.66;;;-140.95;59.41
38054;BME280;23859;50.672;7.164;2024-01-11T09:27:15;36211.56;;;-140.95;60.69
38054;BME280;23859;50.672;7.164;2024-01-11T09:29:45;36213.56;;;-140.95;62.69
38054;BME280;23859;50.672;7.164;2024-01-11T09:32:14;36209.56;;;-140.95;61.11
38054;BME280;23859;50.672;7.164;2024-01-11T09:34:40;36161.31;;;-140.95;59.75
38054;BME280;23859;50.672;7.164;2024-01-11T09:37:06;36157.31;;;-140.95;55.03
38054;BME280;23859;50.672;7.164;2024-01-11T09:39:32;36141.22;;;-140.95;50.38
38054;BME280;23859;50.672;7.164;2024-01-11T09:42:08;36129.19;;;-140.95;47.99
38054;BME280;23859;50.672;7.164;2024-01-11T09:44:37;36117.13;;;-140.95;46.71
38054;BME280;23859;50.672;7.164;2024-01-11T09:47:09;36089.00;;;-140.95;43.34
38054;BME280;23859;50.672;7.164;2024-01-11T09:49:36;36048.81;;;-140.95;41.48
38054;BME280;23859;50.672;7.164;2024-01-11T09:52:05;36014.66;;;-140.95;38.67
38054;BME280;23859;50.672;7.164;2024-01-11T09:54:31;36038.75;;;-140.95;38.58
38054;BME280;23859;50.672;7.164;2024-01-11T09:56:59;36018.66;;;-140.95;37.92
38054;BME280;23859;50.672;7.164;2024-01-11T09:59:28;36338.16;;;-140.95;41.70
38054;BME280;23859;50.672;7.164;2024-01-11T10:01:54;35998.56;;;-140.95;40.12
38054;BME280;23859;50.672;7.164;2024-01-11T10:04:20;35904.13;;;-140.95;34.09
38054;BME280;23859;50.672;7.164;2024-01-11T10:06:47;35867.97;;;-140.95;32.19
38054;BME280;23859;50.672;7.164;2024-01-11T10:09:14;35853.91;;;-140.95;31.92
38054;BME280;23859;50.672;7.164;2024-01-11T10:11:40;35771.53;;;-140.95;30.19
38054;BME280;23859;50.672;7.164;2024-01-11T10:14:07;35841.84;;;-140.95;30.74
38054;BME280;23859;50.672;7.164;2024-01-11T10:16:33;34469.81;;;-140.95;32.35
38054;BME280;23859;50.672;7.164;2024-01-11T10:19:00;35966.44;;;-140.95;34.20
38054;BME280;23859;50.672;7.164;2024-01-11T10:21:27;36004.59;;;-140.95;34.62
38054;BME280;23859;50.672;7.164;2024-01-11T10:23:58;35992.53;;;-140.95;34.92
38054;BME280;23859;50.672;7.164;2024-01-11T10:26:25;36060.88;;;-140.95;36.33
38054;BME280;23859;50.672;7.164;2024-01-11T10:28:51;36080.97;;;-140.95;38.16
38054;BME280;23859;50.672;7.164;2024-01-11T10:31:17;36133.19;;;-140.95;41.93
38054;BME280;23859;50.672;7.164;2024-01-11T10:33:45;36113.09;;;-140.95;42.91
38054;BME280;23859;50.672;7.164;2024-01-11T10:36:12;36091.00;;;-140.95;41.03
38054;BME280;23859;50.672;7.164;2024-01-11T10:38:39;36097.03;;;-140.95;40.83
38054;BME280;23859;50.672;7.164;2024-01-11T10:41:06;36113.09;;;-140.95;40.46
38054;BME280;23859;50.672;7.164;2024-01-11T10:43:36;36099.03;;;-140.95;42.26
38054;BME280;23859;50.672;7.164;2024-01-11T10:46:03;36157.31;;;-140.95;45.76
38054;BME280;23859;50.672;7.164;2024-01-11T10:48:32;36123.16;;;-140.95;45.66
38054;BME280;23859;50.672;7.164;2024-01-11T10:51:00;36101.03;;;-140.95;43.64
38054;BME280;23859;50.672;7.164;2024-01-11T10:53:45;36064.88;;;-140.95;41.96
38054;BME280;23859;50.672;7.164;2024-01-11T10:56:13;36076.94;;;-140.95;41.13
38054;BME280;23859;50.672;7.164;2024-01-11T10:58:41;36097.03;;;-140.95;41.91
38054;BME280;23859;50.672;7.164;2024-01-11T11:01:08;36143.25;;;-140.95;38.75
38054;BME280;23859;50.672;7.164;2024-01-11T11:03:36;36113.09;;;-140.95;42.29
38054;BME280;23859;50.672;7.164;2024-01-11T11:06:03;36133.19;;;-140.95;40.94
38054;BME280;23859;50.672;7.164;2024-01-11T11:08:30;36109.09;;;-140.95;42.69
38054;BME280;23859;50.672;7.164;2024-01-11T11:10:58;36135.22;;;-140.95;43.52
38054;BME280;23859;50.672;7.164;2024-01-11T11:13:25;36129.19;;;-140.95;42.04
38054;BME280;23859;50.672;7.164;2024-01-11T11:15:52;36101.03;;;-140.95;40.40
38054;BME280;23859;50.672;7.164;2024-01-11T11:18:19;36093.00;;;-140.95;39.26
38054;BME280;23859;50.672;7.164;2024-01-11T11:20:46;36084.97;;;-140.95;38.17
38054;BME280;23859;50.672;7.164;2024-01-11T11:23:15;36084.97;;;-140.95;38.55
38054;BME280;23859;50.672;7.164;2024-01-11T11:25:47;36125.16;;;-140.95;42.75
38054;BME280;23859;50.672;7.164;2024-01-11T11:28:15;36060.88;;;-140.95;42.09
38054;BME280;23859;50.672;7.164;2024-01-11T11:30:47;36060.88;;;-140.95;40.34
38054;BME280;23859;50.672;7.164;2024-01-11T11:33:34;36084.97;;;-140.95;39.03
38054;BME280;23859;50.672;7.164;2024-01-11T11:36:00;36072.91;;;-140.95;39.83
38054;BME280;23859;50.672;7.164;2024-01-11T11:38:30;36064.88;;;-140.95;39.77
38054;BME280;23859;50.672;7.164;2024-01-11T11:40:58;36074.94;;;-140.95;39.80
38054;BME280;23859;50.672;7.164;2024-01-11T11:43:27;36022.69;;;-140.95;38.71
38054;BME280;23859;50.672;7.164;2024-01-11T11:45:53;36231.66;;;-140.95;33.96
38054;BME280;23859;50.672;7.164;2024-01-11T11:53:35;35938.28;;;-140.95;33.47
38054;BME280;23859;50.672;7.164;2024-01-11T11:56:02;35928.25;;;-140.95;33.15
38054;BME280;23859;50.672;7.164;2024-01-11T11:58:29;35859.94;;;-140.95;32.00
38054;BME280;23859;50.672;7.164;2024-01-11T12:00:58;35888.06;;;-140.95;31.05
38054;BME280;23859;50.672;7.164;2024-01-11T12:03:33;35926.25;;;-140.95;32.29
38054;BME280;23859;50.672;7.164;2024-01-11T12:06:00;35930.25;;;-140.95;33.22
38054;BME280;23859;50.672;7.164;2024-01-11T12:08:26;35876.00;;;-140.95;31.58
38054;BME280;23859;50.672;7.164;2024-01-11T12:10:53;36004.59;;;-140.95;30.98
38054;BME280;23859;50.672;7.164;2024-01-11T12:13:19;35861.94;;;-140.95;30.04
38054;BME280;23859;50.672;7.164;2024-01-11T12:15:46;35918.19;;;-140.95;32.89
38054;BME280;23859;50.672;7.164;2024-01-11T12:18:13;35904.13;;;-140.95;32.15
38054;BME280;23859;50.672;7.164;2024-01-11T12:20:39;35825.78;;;-140.95;30.70
38054;BME280;23859;50.672;7.164;2024-01-11T12:23:05;35795.63;;;-140.95;28.94
38054;BME280;23859;50.672;7.164;2024-01-11T12:25:31;35932.28;;;-140.95;30.81
38054;BME280;23859;50.672;7.164;2024-01-11T12:27:57;36032.72;;;-140.95;35.94
38054;BME280;23859;50.672;7.164;2024-01-11T12:30:25;36099.03;;;-140.95;38.52
38054;BME280;23859;50.672;7.164;2024-01-11T12:32:51;36089.00;;;-140.95;40.06
38054;BME280;23859;50.672;7.164;2024-01-11T12:35:18;36111.09;;;-140.95;41.51
38054;BME280;23859;50.672;7.164;2024-01-11T12:38:01;36143.25;;;-140.95;42.45
38054;BME280;23859;50.672;7.164;2024-01-11T12:40:36;36117.13;;;-140.95;42.15
38054;BME280;23859;50.672;7.164;2024-01-11T12:43:06;36084.97;;;-140.95;42.18